createdAt,value
2019-02-10T00:00:21.777Z,23.67
2019-02-10T00:02:48.816Z,23.73
2019-02-10T00:05:16.732Z,22.80
2019-02-10T00:07:43.281Z,25.13
2019-02-10T00:10:09.851Z,22.47
2019-02-10T00:12:36.500Z,24.53
2019-02-10T00:15:06.507Z,23.80
2019-02-10T00:17:33.294Z,23.97
2019-02-10T00:19:59.975Z,22.87
2019-02-10T00:22:26.587Z,23.37
2019-02-10T00:24:53.200Z,24.03
2019-02-10T00:27:19.895Z,23.77
2019-02-10T00:29:46.505Z,23.67
2019-02-10T00:32:13.145Z,23.43
2019-02-10T00:34:39.951Z,23.57
2019-02-10T00:37:06.564Z,23.47
2019-02-10T00:39:33.154Z,23.50
2019-02-10T00:42:02.938Z,23.13
2019-02-10T00:44:29.504Z,21.53
2019-02-10T00:46:56.055Z,21.87
2019-02-10T00:50:19.200Z,22.40
2019-02-10T00:52:45.819Z,22.13
2019-02-10T00:55:12.451Z,21.00
2019-02-10T00:57:39.134Z,21.13
2019-02-10T01:00:08.122Z,21.87
2019-02-10T01:02:34.751Z,20.73
2019-02-10T01:05:01.327Z,22.33
2019-02-10T01:07:27.974Z,21.63
2019-02-10T01:09:55.732Z,22.43
2019-02-10T01:12:22.423Z,19.33
2019-02-10T01:14:48.963Z,21.30
2019-02-10T01:17:15.541Z,20.40
2019-02-10T01:19:42.155Z,19.80
2019-02-10T01:22:08.703Z,21.27
2019-02-10T01:24:35.285Z,20.40
2019-02-10T01:27:01.885Z,20.63
2019-02-10T01:29:28.441Z,20.90
2019-02-10T01:31:55.142Z,20.77
2019-02-10T01:34:22.131Z,20.03
2019-02-10T01:36:49.976Z,20.47
2019-02-10T01:39:17.762Z,20.07
2019-02-10T01:41:44.337Z,20.13
2019-02-10T01:44:10.938Z,20.93
2019-02-10T01:46:37.692Z,20.07
2019-02-10T01:49:04.275Z,20.67
2019-02-10T01:51:33.689Z,19.57
2019-02-10T01:54:00.334Z,18.73
2019-02-10T01:56:26.888Z,20.33
2019-02-10T01:58:53.443Z,20.63
2019-02-10T02:01:20.008Z,19.97
2019-02-10T02:03:46.615Z,21.07
2019-02-10T02:06:13.235Z,19.40
2019-02-10T02:08:39.831Z,19.77
2019-02-10T02:11:06.701Z,20.70
2019-02-10T02:13:33.278Z,19.53
2019-02-10T02:15:59.873Z,19.87
2019-02-10T02:18:26.527Z,18.47
2019-02-10T02:20:53.119Z,20.60
2019-02-10T02:23:26.016Z,21.00
2019-02-10T02:25:52.596Z,20.63
2019-02-10T02:28:19.167Z,20.07
2019-02-10T02:30:45.775Z,18.70
2019-02-10T02:33:12.444Z,19.83
2019-02-10T02:35:39.193Z,20.30
2019-02-10T02:38:05.857Z,18.67
2019-02-10T02:40:34.336Z,20.60
2019-02-10T02:43:00.992Z,21.13
2019-02-10T02:45:27.531Z,18.73
2019-02-10T02:47:54.089Z,19.27
2019-02-10T02:50:20.779Z,20.53
2019-02-10T02:52:47.398Z,20.87
2019-02-10T02:55:15.296Z,19.70
2019-02-10T02:57:45.185Z,18.97
2019-02-10T03:00:11.755Z,18.87
2019-02-10T03:02:41.540Z,19.17
2019-02-10T03:05:09.178Z,18.27
2019-02-10T03:07:35.734Z,20.03
2019-02-10T03:10:05.339Z,17.87
2019-02-10T03:12:31.918Z,18.40
2019-02-10T03:14:58.474Z,18.53
2019-02-10T03:17:25.080Z,17.43
2019-02-10T03:19:51.651Z,17.17
2019-02-10T03:22:18.236Z,18.00
2019-02-10T03:24:44.811Z,17.80
2019-02-10T03:27:11.408Z,19.00
2019-02-10T03:29:38.091Z,17.23
2019-02-10T03:32:04.712Z,18.30
2019-02-10T03:34:31.306Z,16.77
2019-02-10T03:36:57.917Z,17.97
2019-02-10T03:39:24.532Z,17.40
2019-02-10T03:41:51.106Z,17.00
2019-02-10T03:44:17.689Z,17.17
2019-02-10T03:46:47.209Z,18.27
2019-02-10T03:49:13.819Z,16.03
2019-02-10T03:51:40.385Z,17.90
2019-02-10T03:54:06.996Z,16.37
2019-02-10T03:56:33.592Z,17.97
2019-02-10T03:59:00.291Z,16.57
2019-02-10T04:01:28.086Z,15.87
2019-02-10T04:03:57.902Z,16.33
2019-02-10T04:06:24.517Z,17.13
2019-02-10T04:08:51.056Z,16.03
2019-02-10T04:11:17.648Z,17.23
2019-02-10T04:13:44.336Z,15.70
2019-02-10T04:16:10.906Z,15.83
2019-02-10T04:18:37.540Z,15.97
2019-02-10T04:21:04.141Z,16.57
2019-02-10T04:23:30.700Z,15.57
2019-02-10T04:25:57.443Z,15.60
2019-02-10T04:28:24.026Z,15.13
2019-02-10T04:30:50.680Z,16.13
2019-02-10T04:33:17.326Z,15.30
2019-02-10T04:35:43.906Z,15.63
2019-02-10T04:38:10.548Z,16.03
2019-02-10T04:40:37.110Z,15.70
2019-02-10T04:43:03.696Z,16.63
2019-02-10T04:45:30.309Z,15.93
2019-02-10T04:47:56.876Z,15.80
2019-02-10T04:50:23.463Z,15.87
2019-02-10T04:52:50.059Z,15.47
2019-02-10T04:55:16.615Z,15.33
2019-02-10T04:57:43.219Z,15.80
2019-02-10T05:00:09.859Z,14.13
2019-02-10T05:02:36.611Z,15.07
2019-02-10T05:05:03.517Z,14.40
2019-02-10T05:07:30.128Z,14.40
2019-02-10T05:09:56.732Z,14.50
2019-02-10T05:12:23.340Z,15.13
2019-02-10T05:14:49.993Z,16.83
2019-02-10T05:17:16.549Z,16.57
2019-02-10T05:19:43.196Z,15.27
2019-02-10T05:22:09.795Z,15.00
2019-02-10T05:24:36.349Z,15.70
2019-02-10T05:27:02.942Z,14.13
2019-02-10T05:29:29.561Z,14.87
2019-02-10T05:31:56.187Z,14.27
2019-02-10T05:34:22.843Z,14.87
2019-02-10T05:36:49.437Z,14.47
2019-02-10T05:39:16.044Z,14.47
2019-02-10T05:41:42.605Z,14.60
2019-02-10T05:44:09.212Z,15.30
2019-02-10T05:46:35.857Z,14.13
2019-02-10T05:49:02.400Z,15.03
2019-02-10T05:51:29.049Z,14.57
2019-02-10T05:53:55.721Z,13.93
2019-02-10T05:56:22.288Z,13.97
2019-02-10T05:58:48.877Z,15.57
2019-02-10T06:01:21.215Z,14.43
2019-02-10T06:03:47.850Z,14.00
2019-02-10T06:06:14.500Z,13.73
2019-02-10T06:08:41.110Z,13.67
2019-02-10T06:11:07.703Z,13.97
2019-02-10T06:13:34.277Z,15.50
2019-02-10T06:16:00.957Z,15.53
2019-02-10T06:18:27.626Z,15.50
2019-02-10T06:20:54.240Z,15.43
2019-02-10T06:23:20.903Z,14.20
2019-02-10T06:25:47.454Z,15.07
2019-02-10T06:28:14.098Z,13.47
2019-02-10T06:30:40.711Z,13.63
2019-02-10T06:33:07.343Z,13.70
2019-02-10T06:35:33.912Z,15.10
2019-02-10T06:38:00.500Z,15.00
2019-02-10T06:40:27.127Z,14.57
2019-02-10T06:42:53.702Z,13.13
2019-02-10T06:45:20.270Z,13.40
2019-02-10T06:47:46.864Z,12.87
2019-02-10T06:50:13.461Z,13.23
2019-02-10T06:52:40.077Z,13.40
2019-02-10T06:55:08.382Z,12.67
2019-02-10T06:57:34.991Z,12.77
2019-02-10T07:00:03.479Z,15.80
2019-02-10T07:02:38.427Z,15.33
2019-02-10T07:05:09.428Z,20.07
2019-02-10T07:07:37.085Z,16.60
2019-02-10T07:10:06.409Z,14.07
2019-02-10T07:12:39.875Z,13.87
2019-02-10T07:15:12.375Z,13.27
2019-02-10T07:17:41.852Z,12.50
2019-02-10T07:20:14.136Z,13.47
2019-02-10T07:22:40.766Z,14.00
2019-02-10T07:25:13.140Z,13.27
2019-02-10T07:27:39.994Z,15.00
2019-02-10T07:30:07.770Z,15.13
2019-02-10T07:32:40.123Z,13.73
2019-02-10T07:35:12.475Z,16.50
2019-02-10T07:37:44.835Z,15.57
2019-02-10T07:40:15.254Z,15.83
2019-02-10T07:42:47.559Z,16.70
2019-02-10T07:45:19.974Z,15.17
2019-02-10T07:47:52.398Z,15.77
2019-02-10T07:50:26.664Z,16.33
2019-02-10T07:52:59.012Z,15.87
2019-02-10T07:55:29.425Z,15.63
2019-02-10T07:58:00.959Z,16.03
2019-02-10T08:00:32.626Z,15.30
2019-02-10T08:03:06.870Z,14.90
2019-02-10T08:05:39.317Z,15.20
2019-02-10T08:08:11.728Z,15.60
2019-02-10T08:10:42.260Z,15.10
2019-02-10T08:13:14.709Z,15.77
2019-02-10T08:15:45.131Z,15.20
2019-02-10T08:18:17.471Z,14.40
2019-02-10T08:20:47.878Z,15.63
2019-02-10T08:23:20.283Z,14.67
2019-02-10T08:25:50.657Z,15.53
2019-02-10T08:28:23.034Z,15.93
2019-02-10T08:30:53.746Z,15.60
2019-02-10T08:33:26.155Z,16.03
2019-02-10T08:35:58.517Z,15.37
2019-02-10T08:38:28.922Z,14.87
2019-02-10T08:41:00.577Z,14.60
2019-02-10T08:43:32.342Z,14.77
2019-02-10T08:46:04.754Z,14.90
2019-02-10T08:48:35.355Z,15.00
2019-02-10T08:51:09.530Z,14.93
2019-02-10T08:53:36.587Z,15.73
2019-02-10T08:56:06.256Z,15.47
2019-02-10T08:58:32.889Z,15.43
2019-02-10T09:00:59.514Z,15.80
2019-02-10T09:03:26.126Z,16.30
2019-02-10T09:05:55.978Z,15.27
2019-02-10T09:08:22.668Z,14.40
2019-02-10T09:10:50.209Z,14.93
2019-02-10T09:13:16.931Z,14.37
2019-02-10T09:15:43.520Z,14.47
2019-02-10T09:18:10.112Z,13.67
2019-02-10T09:20:36.796Z,13.83
2019-02-10T09:23:03.450Z,14.00
2019-02-10T09:26:26.327Z,13.57
2019-02-10T09:28:52.992Z,14.27
2019-02-10T09:31:19.667Z,13.00
2019-02-10T09:33:46.282Z,13.07
2019-02-10T09:36:12.872Z,13.63
2019-02-10T09:38:39.740Z,12.93
2019-02-10T09:41:06.499Z,13.40
2019-02-10T09:43:33.219Z,13.10
2019-02-10T09:45:59.864Z,12.63
2019-02-10T09:48:26.465Z,13.57
2019-02-10T09:50:53.088Z,13.13
2019-02-10T09:53:19.722Z,12.77
2019-02-10T09:55:46.375Z,11.97
2019-02-10T09:58:15.724Z,12.13
2019-02-10T10:00:42.301Z,13.93
2019-02-10T10:03:08.979Z,12.40
2019-02-10T10:05:35.554Z,12.47
2019-02-10T10:08:02.127Z,12.37
2019-02-10T10:10:28.979Z,12.27
2019-02-10T10:12:55.534Z,11.07
2019-02-10T10:15:22.164Z,11.23
2019-02-10T10:17:48.771Z,11.23
2019-02-10T10:20:17.326Z,10.77
2019-02-10T10:22:43.943Z,11.73
2019-02-10T10:25:10.558Z,11.80
2019-02-10T10:27:37.294Z,11.13
2019-02-10T10:30:09.638Z,11.03
2019-02-10T10:32:39.077Z,11.87
2019-02-10T10:35:06.638Z,11.13
2019-02-10T10:37:33.440Z,11.43
2019-02-10T10:40:00.012Z,10.10
2019-02-10T10:42:26.747Z,10.97
2019-02-10T10:44:53.306Z,10.23
2019-02-10T10:47:19.890Z,10.53
2019-02-10T10:49:46.520Z,10.67
2019-02-10T10:52:13.130Z,10.87
2019-02-10T10:54:42.842Z,9.43
2019-02-10T10:57:08.422Z,10.17
2019-02-10T10:59:35.004Z,10.13
2019-02-10T11:02:03.584Z,10.37
2019-02-10T11:04:30.263Z,10.17
2019-02-10T11:06:56.827Z,9.73
2019-02-10T11:09:23.457Z,10.40
2019-02-10T11:11:51.883Z,11.00
2019-02-10T11:14:18.663Z,10.67
2019-02-10T11:16:45.300Z,11.10
2019-02-10T11:19:11.895Z,9.87
2019-02-10T11:21:38.557Z,10.53
2019-02-10T11:24:05.187Z,10.27
2019-02-10T11:26:31.818Z,10.73
2019-02-10T11:28:58.594Z,10.00
2019-02-10T11:31:25.252Z,10.87
2019-02-10T11:33:51.883Z,10.93
2019-02-10T11:36:18.519Z,9.70
2019-02-10T11:38:45.148Z,9.93
2019-02-10T11:41:11.815Z,9.57
2019-02-10T11:43:38.605Z,8.23
2019-02-10T11:46:05.388Z,8.63
2019-02-10T11:48:31.997Z,8.30
2019-02-10T11:50:58.618Z,9.30
2019-02-10T11:53:25.189Z,9.23
2019-02-10T11:56:48.427Z,9.20
2019-02-10T11:59:15.121Z,8.53
2019-02-10T12:01:41.758Z,8.13
2019-02-10T12:04:08.438Z,7.73
2019-02-10T12:06:35.085Z,7.97
2019-02-10T12:09:01.717Z,8.33
2019-02-10T12:11:32.700Z,9.20
2019-02-10T12:13:59.356Z,8.60
2019-02-10T12:16:26.159Z,9.10
2019-02-10T12:18:52.788Z,9.70
2019-02-10T12:21:19.470Z,9.87
2019-02-10T12:23:46.218Z,9.83
2019-02-10T12:26:12.972Z,9.90
2019-02-10T12:28:39.631Z,10.17
2019-02-10T12:31:06.264Z,10.83
2019-02-10T12:33:32.825Z,10.57
2019-02-10T12:35:59.446Z,11.07
2019-02-10T12:38:29.283Z,10.30
2019-02-10T12:40:55.922Z,10.07
2019-02-10T12:43:22.476Z,11.07
2019-02-10T12:45:49.123Z,10.33
2019-02-10T12:48:15.763Z,11.37
2019-02-10T12:50:42.382Z,14.30
2019-02-10T12:53:08.997Z,11.47
2019-02-10T12:55:35.564Z,10.50
2019-02-10T12:58:02.189Z,10.63
2019-02-10T13:00:28.859Z,12.00
2019-02-10T13:02:55.473Z,11.77
2019-02-10T13:05:22.159Z,10.37
2019-02-10T13:07:48.737Z,12.80
2019-02-10T13:10:17.802Z,12.73
2019-02-10T13:12:44.032Z,12.93
2019-02-10T13:15:11.825Z,14.37
2019-02-10T13:17:38.572Z,15.70
2019-02-10T13:20:08.966Z,15.20
2019-02-10T13:22:35.560Z,15.33
2019-02-10T13:25:05.129Z,14.33
2019-02-10T13:27:31.745Z,12.97
2019-02-10T13:29:58.426Z,13.50
2019-02-10T13:32:25.035Z,13.70
2019-02-10T13:34:51.632Z,12.90
2019-02-10T13:37:18.318Z,13.27
2019-02-10T13:39:44.916Z,14.13
2019-02-10T13:42:11.495Z,14.43
2019-02-10T13:44:38.203Z,15.30
2019-02-10T13:47:04.929Z,15.80
2019-02-10T13:49:31.475Z,15.57
2019-02-10T13:51:58.046Z,15.50
2019-02-10T13:54:24.673Z,14.47
2019-02-10T13:56:52.518Z,14.13
2019-02-10T13:59:19.141Z,13.77
2019-02-10T14:01:45.729Z,14.50
2019-02-10T14:04:12.378Z,13.43
2019-02-10T14:06:39.081Z,14.10
2019-02-10T14:09:06.330Z,10.57
2019-02-10T14:11:33.145Z,13.10
2019-02-10T14:13:59.836Z,12.60
2019-02-10T14:16:26.490Z,13.43
2019-02-10T14:18:53.297Z,13.77
2019-02-10T14:21:20.081Z,14.13
2019-02-10T14:23:46.651Z,14.07
2019-02-10T14:26:13.261Z,13.10
2019-02-10T14:28:39.929Z,15.30
2019-02-10T14:31:06.599Z,13.77
2019-02-10T14:33:38.743Z,14.27
2019-02-10T14:36:02.226Z,13.63
2019-02-10T14:38:36.143Z,13.90
2019-02-10T14:40:57.393Z,15.17
2019-02-10T14:43:24.103Z,14.47
2019-02-10T14:45:50.662Z,13.93
2019-02-10T14:48:17.238Z,15.23
2019-02-10T14:50:43.871Z,14.10
2019-02-10T14:53:10.610Z,14.70
2019-02-10T14:55:37.206Z,15.20
2019-02-10T14:58:03.778Z,15.10
2019-02-10T15:00:30.389Z,14.50
2019-02-10T15:02:57.065Z,14.53
2019-02-10T15:05:23.663Z,14.97
2019-02-10T15:07:50.328Z,14.87
2019-02-10T15:10:20.874Z,15.57
2019-02-10T15:12:47.537Z,14.60
2019-02-10T15:15:14.117Z,15.70
2019-02-10T15:17:40.837Z,16.33
2019-02-10T15:20:09.677Z,17.67
2019-02-10T15:22:36.271Z,17.43
2019-02-10T15:25:07.816Z,16.50
2019-02-10T15:27:35.639Z,15.70
2019-02-10T15:30:07.116Z,16.07
2019-02-10T15:32:33.707Z,17.13
2019-02-10T15:35:00.349Z,17.53
2019-02-10T15:37:26.967Z,16.10
2019-02-10T15:39:53.554Z,17.07
2019-02-10T15:42:20.105Z,17.83
2019-02-10T15:44:46.722Z,18.20
2019-02-10T15:47:13.371Z,19.57
2019-02-10T15:49:40.178Z,19.20
2019-02-10T15:52:06.774Z,21.77
2019-02-10T15:54:33.328Z,22.03
2019-02-10T15:57:01.163Z,23.30
2019-02-10T15:59:27.776Z,23.87
2019-02-10T16:01:54.368Z,21.27
2019-02-10T16:04:22.143Z,22.60
2019-02-10T16:06:48.787Z,20.57
2019-02-10T16:09:15.350Z,20.97
2019-02-10T16:11:41.992Z,20.90
2019-02-10T16:14:09.656Z,20.90
2019-02-10T16:16:36.222Z,20.10
2019-02-10T16:19:02.769Z,20.37
2019-02-10T16:21:29.390Z,21.47
2019-02-10T16:23:55.954Z,20.67
2019-02-10T16:26:22.534Z,20.60
2019-02-10T16:28:49.180Z,22.03
2019-02-10T16:31:15.754Z,19.53
2019-02-10T16:33:42.392Z,21.47
2019-02-10T16:36:09.021Z,18.97
2019-02-10T16:38:35.606Z,19.67
2019-02-10T16:41:06.419Z,18.90
2019-02-10T16:43:30.726Z,20.17
2019-02-10T16:45:57.376Z,20.70
2019-02-10T16:48:23.983Z,20.60
2019-02-10T16:50:50.620Z,19.73
2019-02-10T16:53:17.316Z,20.30
2019-02-10T16:55:44.049Z,20.83
2019-02-10T16:58:10.637Z,21.23
2019-02-10T17:00:37.336Z,21.63
2019-02-10T17:03:04.006Z,21.00
2019-02-10T17:05:30.668Z,22.17
2019-02-10T17:07:57.358Z,20.93
2019-02-10T17:10:23.967Z,19.33
2019-02-10T17:12:50.609Z,21.53
2019-02-10T17:15:17.161Z,18.37
2019-02-10T17:17:43.794Z,21.97
2019-02-10T17:20:11.741Z,21.37
2019-02-10T17:22:39.881Z,22.20
2019-02-10T17:25:11.676Z,21.40
2019-02-10T17:27:38.304Z,21.37
2019-02-10T17:30:10.031Z,20.90
2019-02-10T17:32:36.657Z,20.80
2019-02-10T17:35:07.949Z,21.67
2019-02-10T17:37:34.652Z,21.23
2019-02-10T17:40:01.268Z,21.77
2019-02-10T17:42:27.947Z,20.43
2019-02-10T17:44:54.684Z,21.03
2019-02-10T17:47:21.389Z,22.27
2019-02-10T17:49:48.137Z,21.30
2019-02-10T17:52:14.929Z,20.67
2019-02-10T17:54:42.167Z,20.50
2019-02-10T17:57:08.936Z,19.40
2019-02-10T17:59:35.634Z,20.83
2019-02-10T18:02:02.382Z,21.80
2019-02-10T18:04:37.221Z,19.33
2019-02-10T18:06:57.605Z,22.93
2019-02-10T18:09:24.268Z,22.33
2019-02-10T18:11:50.954Z,24.27
2019-02-10T18:14:19.444Z,23.57
2019-02-10T18:16:47.974Z,22.77
2019-02-10T18:19:16.497Z,22.77
2019-02-10T18:21:45.085Z,25.87
2019-02-10T18:24:15.699Z,26.53
2019-02-10T18:26:44.379Z,24.63
2019-02-10T18:29:14.177Z,25.83
2019-02-10T18:31:42.782Z,24.97
2019-02-10T18:34:11.443Z,22.93
2019-02-10T18:36:40.195Z,23.77
2019-02-10T18:39:08.762Z,23.97
2019-02-10T18:41:39.278Z,24.57
2019-02-10T18:44:10.383Z,23.10
2019-02-10T18:46:39.169Z,22.47
2019-02-10T18:49:07.674Z,22.40
2019-02-10T18:51:38.543Z,23.00
2019-02-10T18:54:07.447Z,22.07
2019-02-10T18:56:36.213Z,22.87
2019-02-10T18:59:05.420Z,24.33
2019-02-10T19:01:33.972Z,23.97
2019-02-10T19:04:02.571Z,23.33
2019-02-10T19:06:31.190Z,22.80
2019-02-10T19:09:03.842Z,20.47
2019-02-10T19:11:30.153Z,23.83
2019-02-10T19:14:01.674Z,22.30
2019-02-10T19:16:31.300Z,23.40
2019-02-10T19:18:57.907Z,22.87
2019-02-10T19:21:26.551Z,24.43
2019-02-10T19:23:55.459Z,21.80
2019-02-10T19:26:24.401Z,24.80
2019-02-10T19:29:52.113Z,24.27
2019-02-10T19:32:20.921Z,23.23
2019-02-10T19:34:49.734Z,23.30
2019-02-10T19:37:18.559Z,23.67
2019-02-10T19:39:47.490Z,21.33
2019-02-10T19:42:16.600Z,21.77
2019-02-10T19:44:45.608Z,21.77
2019-02-10T19:47:14.448Z,21.87
2019-02-10T19:49:43.425Z,21.43
2019-02-10T19:52:12.309Z,22.37
2019-02-10T19:54:41.304Z,22.83
2019-02-10T19:57:10.341Z,23.63
2019-02-10T19:59:39.422Z,23.27
2019-02-10T20:02:08.582Z,22.00
2019-02-10T20:04:37.811Z,23.80
2019-02-10T20:08:03.495Z,24.03
2019-02-10T20:10:32.628Z,23.87
2019-02-10T20:13:01.487Z,23.63
2019-02-10T20:15:30.415Z,21.10
2019-02-10T20:18:00.479Z,23.43
2019-02-10T20:20:29.407Z,23.97
2019-02-10T20:22:56.663Z,24.50
2019-02-10T20:25:25.553Z,24.03
2019-02-10T20:27:54.383Z,25.00
2019-02-10T20:30:23.308Z,24.17
2019-02-10T20:32:54.162Z,23.90
2019-02-10T20:35:23.184Z,24.60
2019-02-10T20:37:52.005Z,23.07
2019-02-10T20:40:20.840Z,24.60
2019-02-10T20:42:49.826Z,23.47
2019-02-10T20:45:18.810Z,28.00
2019-02-10T20:47:47.746Z,25.90
2019-02-10T20:50:16.759Z,25.90
2019-02-10T20:52:46.514Z,26.40
2019-02-10T20:55:15.824Z,25.17
2019-02-10T20:57:44.624Z,26.33
2019-02-10T21:00:13.509Z,26.33
2019-02-10T21:02:42.447Z,26.60
2019-02-10T21:05:11.931Z,27.30
2019-02-10T21:07:40.883Z,24.77
2019-02-10T21:10:10.772Z,25.70
2019-02-10T21:12:40.108Z,25.77
2019-02-10T21:15:10.671Z,25.13
2019-02-10T21:17:39.667Z,23.47
2019-02-10T21:20:10.973Z,25.33
2019-02-10T21:22:39.835Z,23.27
2019-02-10T21:25:09.413Z,25.60
2019-02-10T21:27:38.362Z,25.13
2019-02-10T21:30:11.262Z,26.40
2019-02-10T21:32:40.290Z,26.87
2019-02-10T21:35:09.161Z,25.87
2019-02-10T21:37:38.094Z,24.73
2019-02-10T21:40:08.864Z,23.23
2019-02-10T21:42:37.794Z,26.40
2019-02-10T21:45:08.661Z,26.00
2019-02-10T21:47:37.603Z,26.17
2019-02-10T21:50:06.613Z,25.53
2019-02-10T21:52:33.750Z,25.83
2019-02-10T21:55:01.292Z,26.07
2019-02-10T21:57:30.080Z,26.47
2019-02-10T21:59:57.860Z,25.00
2019-02-10T22:02:26.051Z,24.40
2019-02-10T22:04:52.926Z,24.30
2019-02-10T22:07:20.282Z,23.73
2019-02-10T22:09:47.338Z,26.03
2019-02-10T22:12:14.235Z,25.57
2019-02-10T22:14:41.866Z,25.77
2019-02-10T22:17:09.103Z,24.57
2019-02-10T22:19:37.342Z,25.07
2019-02-10T22:22:04.527Z,25.23
2019-02-10T22:24:31.473Z,26.47
2019-02-10T22:26:58.949Z,20.33
2019-02-10T22:29:26.089Z,24.63
2019-02-10T22:31:52.972Z,25.03
2019-02-10T22:34:20.380Z,24.67
2019-02-10T22:36:49.732Z,25.33
2019-02-10T22:39:16.838Z,24.97
2019-02-10T22:41:43.847Z,24.17
2019-02-10T22:44:10.805Z,24.07
2019-02-10T22:46:37.785Z,25.13
2019-02-10T22:49:05.016Z,22.53
2019-02-10T22:51:32.033Z,23.47
2019-02-10T22:53:58.893Z,25.27
2019-02-10T22:56:26.259Z,22.97
2019-02-10T22:58:53.170Z,24.33
2019-02-10T23:01:20.059Z,24.57
2019-02-10T23:03:46.961Z,22.67
2019-02-10T23:06:13.919Z,24.80
2019-02-10T23:08:40.916Z,22.73
2019-02-10T23:11:07.887Z,24.47
2019-02-10T23:13:34.963Z,23.73
2019-02-10T23:16:02.034Z,24.40
2019-02-10T23:18:28.910Z,23.90
2019-02-10T23:20:55.885Z,24.10
2019-02-10T23:23:22.742Z,22.90
2019-02-10T23:25:49.944Z,24.13
2019-02-10T23:28:20.026Z,23.73
2019-02-10T23:30:46.893Z,24.73
2019-02-10T23:33:13.885Z,23.80
2019-02-10T23:35:40.893Z,23.40
2019-02-10T23:38:07.878Z,23.27
2019-02-10T23:40:35.009Z,22.47
2019-02-10T23:43:02.487Z,23.17
2019-02-10T23:45:29.823Z,24.27
2019-02-10T23:47:56.734Z,22.80
2019-02-10T23:50:23.683Z,23.50
2019-02-10T23:52:50.612Z,22.87
2019-02-10T23:55:17.645Z,23.80
2019-02-10T23:57:44.777Z,22.33
